Nearby METAR Reports

 

KMLE - Omaha/Millard, Nebraska, USA
Distance from station: NE 1mi, 2km
Updated: Tue, 21-May-2019 10:55am CDT
Light rain, Overcast
Light rain, Overcast
 Wind from ESE
Wind: ESE 12 mph , 19 km/h, Gust: 21 mph , 33 km/h
Temperature: 48°F , 9°C
Wind Chill: 43°F , 6°C
Dew Point: 46°F , 8°C
Humidity: 94%
Barometer: 29.73 inHg , 1006.8 hPa
Summary: Light rain
Clouds: Overcast
Visibility: 7 miles , 11 km
Cloud details: Overcast 900 ft
2019/05/21 15:55 KMLE 211555Z AUTO 11010G18KT 7SM -RA OVC009 09/08 A2973 RMK AO2 P0007 T00920077
KOFF - Offutt Afb/Belle, Nebraska, USA
Distance from station: ESE 12mi, 20km
Updated: Tue, 21-May-2019 10:56am CDT
Rain showers, Overcast
Rain showers, Overcast
 Wind from E
Wind: E 16 mph , 26 km/h, Gust: 24 mph , 39 km/h
Temperature: 48°F , 9°C
Wind Chill: 42°F , 6°C
Dew Point: 43°F , 6°C
Humidity: 82%
Barometer: 29.73 inHg , 1006.8 hPa
Summary: Rain Showers
Clouds: Overcast
Visibility: 7 miles , 11 km
Cloud details: Overcast 1000 ft
2019/05/21 15:56 KOFF 211556Z 10014G21KT 7SM SHRA OVC010 09/06 A2973 RMK AO2A SLP068 RVRNO $
 
KOMA - Omaha/Eppley, Nebraska, USA
Distance from station: NE 15mi, 24km
Updated: Tue, 21-May-2019 10:52am CDT
Light rain, Mist, Overcast
Light rain, Mist, Overcast
 Wind from ESE
Wind: ESE 18 mph , 30 km/h, Gust: 28 mph , 44 km/h
Temperature: 48°F , 9°C
Wind Chill: 41°F , 5°C
Dew Point: 46°F , 8°C
Humidity: 94%
Barometer: 29.75 inHg , 1007.5 hPa
Summary: Light rain, Mist
Clouds: Overcast
Visibility: 2 miles , 3 km
Cloud details: Overcast 1300 ft
2019/05/21 15:52 KOMA 211552Z 11016G24KT 2SM -RA BR OVC013 09/08 A2975 RMK AO2 PK WND 11034/1540 SFC VIS 6 SLP073 P0002 T00940078
KBTA - Blair Muni, Nebraska, USA
Distance from station: N 16mi, 25km
Updated: Tue, 21-May-2019 10:55am CDT
Light rain, Overcast
Light rain, Overcast
 Wind from E
Wind: E 21 mph , 33 km/h, Gust: 26 mph , 43 km/h
Temperature: 46°F , 8°C
Wind Chill: 38°F , 3°C
Dew Point: 46°F , 8°C
Humidity: 100%
Barometer: 29.72 inHg , 1006.4 hPa
Summary: Light rain
Clouds: Overcast
Visibility: 4 miles , 6 km
Cloud details: Overcast 800 ft
2019/05/21 15:55 KBTA 211555Z AUTO 09018G23KT 4SM -RA OVC008 08/08 A2972 RMK AO2 P0004 T00830075
 
KCBF - Council Bluffs, Iowa, USA
Distance from station: ENE 20mi, 32km
Updated: Tue, 21-May-2019 10:55am CDT
Mist, Overcast
Mist, Overcast
 Wind from E
Wind: E 20 mph , 31 km/h, Gust: 28 mph , 44 km/h
Temperature: 46°F , 8°C
Wind Chill: 38°F , 3°C
Dew Point: 46°F , 8°C
Humidity: 100%
Barometer: 29.72 inHg , 1006.4 hPa
Summary: Mist
Clouds: Overcast
Visibility: 6 miles , 10 km
Cloud details: Overcast 1000 ft
2019/05/21 15:55 KCBF 211555Z AUTO 10017G24KT 6SM BR OVC010 08/08 A2972 RMK AO2 P0002
KPMV - Plattsmouth Muni, Nebraska, USA
Distance from station: SE 20mi, 32km
Updated: Tue, 21-May-2019 10:55am CDT
Light rain, Overcast
Light rain, Overcast
 Wind from E
Wind: E 22 mph , 35 km/h, Gust: 31 mph , 50 km/h
Temperature: 46°F , 8°C
Wind Chill: 38°F , 3°C
Dew Point: 46°F , 8°C
Humidity: 100%
Barometer: 29.73 inHg , 1006.8 hPa
Summary: Light rain
Clouds: Overcast
Visibility: 5 miles , 8 km
Cloud details: Overcast 900 ft
2019/05/21 15:55 KPMV 211555Z AUTO 10019G27KT 5SM -RA OVC009 08/08 A2973 RMK AO2 P0004 T00840075
 
KAHQ - Wahoo, Nebraska, USA
Distance from station: W 25mi, 40km
Updated: Tue, 21-May-2019 10:55am CDT
Light rain, Overcast
Light rain, Overcast
 Wind from E
Wind: E 20 mph , 31 km/h, Gust: 29 mph , 46 km/h
Temperature: 48°F , 9°C
Wind Chill: 41°F , 5°C
Dew Point: 46°F , 8°C
Humidity: 94%
Barometer: 29.70 inHg , 1005.8 hPa
Summary: Light rain
Clouds: Overcast
Visibility: 5 miles , 8 km
Cloud details: Overcast 900 ft
2019/05/21 15:55 KAHQ 211555Z AUTO 10017G25KT 5SM -RA OVC009 09/08 A2970 RMK AO2 P0002 T00860084
KFET - Fremont Muni Arp, Nebraska, USA
Distance from station: NW 27mi, 43km
Updated: Tue, 21-May-2019 10:55am CDT
Light rain, Overcast
Light rain, Overcast
 Wind from E
Wind: E 18 mph , 30 km/h, Gust: 28 mph , 44 km/h
Temperature: 48°F , 9°C
Wind Chill: 41°F , 5°C
Dew Point: 46°F , 8°C
Humidity: 94%
Barometer: 29.71 inHg , 1006.1 hPa
Summary: Light rain
Clouds: Overcast
Visibility: 4 miles , 6 km
Cloud details: Overcast 900 ft
2019/05/21 15:55 KFET 211555Z AUTO 09016G24KT 4SM -RA OVC009 09/08 A2971 RMK AO2 P0002 T00910081
 
KTQE - Tekamah, Nebraska, USA
Distance from station: N 40mi, 64km
Updated: Tue, 21-May-2019 10:54am CDT
Light rain, Overcast
Light rain, Overcast
 Wind from E
Wind: E 21 mph , 33 km/h, Gust: 30 mph , 48 km/h
Temperature: 48°F , 9°C
Wind Chill: 41°F , 5°C
Dew Point: 45°F , 7°C
Humidity: 87%
Barometer: 29.76 inHg , 1007.8 hPa
Summary: Light rain
Clouds: Overcast
Visibility: 10 miles , 16 km
Cloud details: Overcast 1200 ft
2019/05/21 15:54 KTQE 211554Z AUTO 10018G26KT 10SM -RA OVC012 09/07 A2976 RMK AO2 PK WND 10026/1553 RAE00B50 SLP074 P0000 T00890072
KLNK - Lincoln, Nebraska, USA
Distance from station: SW 41mi, 65km
Updated: Tue, 21-May-2019 11:01am CDT
Rain, Mist, Overcast
Rain, Mist, Overcast
 Wind from E
Wind: E 20 mph , 31 km/h, Gust: 32 mph , 52 km/h
Temperature: 48°F , 9°C
Wind Chill: 41°F , 5°C
Dew Point: 46°F , 8°C
Humidity: 94%
Barometer: 29.66 inHg , 1004.4 hPa
Summary: Rain, Mist
Clouds: Overcast
Visibility: 4 miles , 6 km
Cloud details: Mostly cloudy 900 ft
Overcast 1300 ft
2019/05/21 16:01 KLNK 211601Z 10017G28KT 4SM RA BR BKN009 OVC013 09/08 A2966 RMK AO2 PK WND 10027/1601 CIG 006V010 P0002 T00940078
 
KAFK - Nebraska City, Nebraska, USA
Distance from station: SSE 43mi, 70km
Updated: Tue, 21-May-2019 10:55am CDT
Light rain, Overcast
Light rain, Overcast
 Wind from ESE
Wind: ESE 18 mph , 30 km/h, Gust: 24 mph , 39 km/h
Temperature: 46°F , 8°C
Wind Chill: 39°F , 4°C
Dew Point: 46°F , 8°C
Humidity: 100%
Barometer: 29.72 inHg , 1006.4 hPa
Summary: Light rain
Clouds: Overcast
Visibility: 5 miles , 8 km
Cloud details: Overcast 700 ft
2019/05/21 15:55 KAFK 211555Z AUTO 11016G21KT 5SM -RA OVC007 08/08 A2972 RMK AO2 P0010 T00830080
KRDK - Red Oak, Iowa, USA
Distance from station: ESE 47mi, 75km
Updated: Tue, 21-May-2019 10:55am CDT
Light rain, Overcast
Light rain, Overcast
 Wind from E
Wind: E 14 mph , 22 km/h, Gust: 30 mph , 48 km/h
Temperature: 46°F , 8°C
Wind Chill: 40°F , 4°C
Dew Point: 46°F , 8°C
Humidity: 100%
Barometer: 29.76 inHg , 1007.8 hPa
Summary: Light rain
Clouds: Overcast
Visibility: 4 miles , 6 km
Cloud details: Overcast 1400 ft
2019/05/21 15:55 KRDK 211555Z AUTO 08012G26KT 4SM -RA OVC014 08/08 A2976 RMK AO2 P0005
 
KSDA - Shenandoah Muni, Iowa, USA
Distance from station: SE 48mi, 77km
Updated: Tue, 21-May-2019 10:55am CDT
Light rain, Overcast
Light rain, Overcast
 Wind from E
Wind: E 16 mph , 26 km/h
Temperature: 48°F , 9°C
Wind Chill: 42°F , 6°C
Dew Point: 48°F , 9°C
Humidity: 100%
Barometer: 29.72 inHg , 1006.4 hPa
Summary: Light rain
Clouds: Overcast
Visibility: 2 miles , 3 km
Cloud details: Overcast 1200 ft
2019/05/21 15:55 KSDA 211555Z AUTO 08014KT 2SM -RA OVC012 09/09 A2972 RMK AO2
KHNR - Harlan Muni, Iowa, USA
Distance from station: NE 49mi, 80km
Updated: Tue, 21-May-2019 10:55am CDT
Mostly cloudy
Mostly cloudy
 Wind from E
Wind: E 23 mph , 37 km/h, Gust: 33 mph , 54 km/h
Temperature: 46°F , 8°C
Wind Chill: 38°F , 3°C
Dew Point: 46°F , 8°C
Humidity: 100%
Barometer: 29.77 inHg , 1008.1 hPa
Clouds: Mostly cloudy
Visibility: 7 miles , 11 km
Cloud details: Mostly cloudy 1600 ft
2019/05/21 15:55 KHNR 211555Z AUTO 09020G29KT 7SM BKN016 08/08 A2977 RMK AO2